createdAt,value
2018-10-11T16:28:08.813Z,21.53
2018-10-11T16:29:08.757Z,21.60
2018-10-11T16:30:08.769Z,21.56
2018-10-11T16:31:08.844Z,21.56
2018-10-11T16:32:08.790Z,21.47
2018-10-11T16:33:08.820Z,21.48
2018-10-11T16:34:08.791Z,21.58
2018-10-11T16:35:08.870Z,21.47
2018-10-11T16:36:08.828Z,21.50
2018-10-11T16:37:08.863Z,21.47
2018-10-11T16:38:08.840Z,21.58
2018-10-11T16:39:08.901Z,21.48
2018-10-11T16:40:08.849Z,21.47
2018-10-11T16:41:08.850Z,21.44
2018-10-11T16:42:08.921Z,21.45
2018-10-11T16:43:08.896Z,21.44
2018-10-11T16:44:08.912Z,21.50
2018-10-11T16:45:08.919Z,21.45
2018-10-11T16:46:08.900Z,21.48
2018-10-11T16:47:08.932Z,21.47
2018-10-11T16:48:08.958Z,21.35
2018-10-11T16:49:08.935Z,21.40
2018-10-11T16:50:09.016Z,21.37
2018-10-11T16:51:09.000Z,21.29
2018-10-11T16:52:08.981Z,21.29
2018-10-11T16:53:09.006Z,21.33
2018-10-11T16:54:08.983Z,21.33
2018-10-11T16:55:09.001Z,21.29
2018-10-11T16:56:09.013Z,21.35
2018-10-11T16:57:09.025Z,21.33
2018-10-11T16:58:09.078Z,21.29
2018-10-11T16:59:09.050Z,21.40
2018-10-11T17:00:09.082Z,21.37
2018-10-11T17:01:09.064Z,21.33
2018-10-11T17:02:09.083Z,21.33
2018-10-11T17:03:09.141Z,21.35
2018-10-11T17:04:09.233Z,21.32
2018-10-11T17:05:09.122Z,21.35
2018-10-11T17:06:09.146Z,21.28
2018-10-11T17:07:09.179Z,21.30
2018-10-11T17:08:09.156Z,21.33
2018-10-11T17:09:09.220Z,21.23
2018-10-11T17:10:09.206Z,21.26
2018-10-11T17:11:09.269Z,21.30
2018-10-11T17:12:09.257Z,21.37
2018-10-11T17:13:09.233Z,21.29
2018-10-11T17:14:09.255Z,21.28
2018-10-11T17:15:09.278Z,21.25
2018-10-11T17:16:09.250Z,21.25
2018-10-11T17:17:09.349Z,21.28
2018-10-11T17:18:09.256Z,21.22
2018-10-11T17:19:09.262Z,21.26
2018-10-11T17:20:09.351Z,21.25
2018-10-11T17:21:09.409Z,21.23
2018-10-11T17:22:09.394Z,21.22
2018-10-11T17:23:09.330Z,21.28
2018-10-11T17:24:09.327Z,21.22
2018-10-11T17:25:09.366Z,21.20
2018-10-11T17:26:09.394Z,21.17
2018-10-11T17:27:09.353Z,21.15
2018-10-11T17:28:09.410Z,21.19
2018-10-11T17:29:09.388Z,21.10
2018-10-11T17:30:09.378Z,21.10
2018-10-11T17:31:09.414Z,21.07
2018-10-11T17:32:09.409Z,20.93
2018-10-11T17:33:09.501Z,21.05
2018-10-11T17:34:09.437Z,20.98
2018-10-11T17:35:09.526Z,20.89
2018-10-11T17:36:10.195Z,20.90
2018-10-11T17:37:10.673Z,20.92
2018-10-11T17:38:10.451Z,20.78
2018-10-11T17:39:09.507Z,20.80
2018-10-11T17:40:09.524Z,20.89
2018-10-11T17:41:09.621Z,20.92
2018-10-11T17:42:09.534Z,20.86
2018-10-11T17:43:09.513Z,20.90
2018-10-11T17:44:09.527Z,20.93
2018-10-11T17:45:09.828Z,20.80
2018-10-11T17:46:09.566Z,20.78
2018-10-11T17:47:09.594Z,20.86
2018-10-11T17:48:09.576Z,20.85
2018-10-11T17:49:09.586Z,20.80
2018-10-11T17:50:09.701Z,20.80
2018-10-11T17:51:09.662Z,20.80
2018-10-11T17:52:09.619Z,20.78
2018-10-11T17:53:09.626Z,20.86
2018-10-11T17:54:09.639Z,20.77
2018-10-11T17:55:09.697Z,20.80
2018-10-11T17:56:09.653Z,20.74
2018-10-11T17:57:09.726Z,20.75
2018-10-11T17:58:09.723Z,20.77
2018-10-11T17:59:09.715Z,20.80
2018-10-11T18:00:09.763Z,20.71
2018-10-11T18:01:09.717Z,20.73
2018-10-11T18:02:09.772Z,20.63
2018-10-11T18:03:09.778Z,20.68
2018-10-11T18:04:09.777Z,20.64
2018-10-11T18:05:09.814Z,20.60
2018-10-11T18:06:09.771Z,20.64
2018-10-11T18:07:09.835Z,20.60
2018-10-11T18:08:09.790Z,20.63
2018-10-11T18:09:09.816Z,20.64
2018-10-11T18:10:10.058Z,20.64
2018-10-11T18:11:09.820Z,20.50
2018-10-11T18:12:09.904Z,20.49
2018-10-11T18:13:09.874Z,20.48
2018-10-11T18:14:09.885Z,20.44
2018-10-11T18:15:09.886Z,20.52
2018-10-11T18:16:09.999Z,20.50
2018-10-11T18:17:09.894Z,20.46
2018-10-11T18:18:09.930Z,20.40
2018-10-11T18:19:10.011Z,20.40
2018-10-11T18:20:09.966Z,20.33
2018-10-11T18:21:10.071Z,20.32
2018-10-11T18:22:09.993Z,20.36
2018-10-11T18:23:09.986Z,20.30
2018-10-11T18:24:10.008Z,20.39
2018-10-11T18:25:09.976Z,20.27
2018-10-11T18:26:09.983Z,20.27
2018-10-11T18:27:10.005Z,20.36
2018-10-11T18:28:10.020Z,20.40
2018-10-11T18:29:10.139Z,20.33
2018-10-11T18:30:10.015Z,20.24
2018-10-11T18:31:10.041Z,20.29
2018-10-11T18:32:10.041Z,20.34
2018-10-11T18:33:10.051Z,20.30
2018-10-11T18:34:10.109Z,20.19
2018-10-11T18:35:10.076Z,20.30
2018-10-11T18:36:10.103Z,20.26
2018-10-11T18:37:10.106Z,20.22
2018-10-11T18:38:10.124Z,20.18
2018-10-11T18:39:10.229Z,20.21
2018-10-11T18:40:10.136Z,20.15
2018-10-11T18:41:10.155Z,20.19
2018-10-11T18:42:10.159Z,20.12
2018-10-11T18:43:10.197Z,20.12
2018-10-11T18:44:10.173Z,20.10
2018-10-11T18:45:10.293Z,20.10
2018-10-11T18:46:10.380Z,20.15
2018-10-11T18:47:10.198Z,20.11
2018-10-11T18:48:10.232Z,20.11
2018-10-11T18:49:10.321Z,20.11
2018-10-11T18:50:10.319Z,20.15
2018-10-11T18:51:10.261Z,20.12
2018-10-11T18:52:10.316Z,20.14
2018-10-11T18:53:10.300Z,20.08
2018-10-11T18:54:10.280Z,20.02
2018-10-11T18:55:10.281Z,20.15
2018-10-11T18:56:10.341Z,20.14
2018-10-11T18:57:10.346Z,20.15
2018-10-11T18:58:10.318Z,20.11
2018-10-11T18:59:10.372Z,20.10
2018-10-11T19:00:10.342Z,20.07
2018-10-11T19:01:10.352Z,20.04
2018-10-11T19:02:10.378Z,20.04
2018-10-11T19:03:10.420Z,20.07
2018-10-11T19:04:10.392Z,19.89
2018-10-11T19:05:10.501Z,19.92
2018-10-11T19:06:10.472Z,19.90
2018-10-11T19:07:10.451Z,19.96
2018-10-11T19:08:10.474Z,19.93
2018-10-11T19:09:10.639Z,19.79
2018-10-11T19:10:10.473Z,19.92
2018-10-11T19:11:10.454Z,19.89
2018-10-11T19:12:10.480Z,19.92
2018-10-11T19:13:10.538Z,19.87
2018-10-11T19:14:10.609Z,19.82
2018-10-11T19:15:10.526Z,19.79
2018-10-11T19:16:10.513Z,19.81
2018-10-11T19:17:10.522Z,19.81
2018-10-11T19:18:10.551Z,19.82
2018-10-11T19:19:10.609Z,19.82
2018-10-11T19:20:10.553Z,19.81
2018-10-11T19:21:10.762Z,19.75
2018-10-11T19:22:10.591Z,19.71
2018-10-11T19:23:10.583Z,19.72
2018-10-11T19:24:10.651Z,19.78
2018-10-11T19:25:10.662Z,19.81
